sensor_id;sensor_type;location;lat;lon;timestamp;temperature;humidity
1702;DHT22;848;48.354;10.064;2023-04-24T00:00:20;11.30;99.90
1702;DHT22;848;48.354;10.064;2023-04-24T00:02:49;11.40;99.90
1702;DHT22;848;48.354;10.064;2023-04-24T00:05:16;11.40;99.90
1702;DHT22;848;48.354;10.064;2023-04-24T00:07:44;11.40;99.90
1702;DHT22;848;48.354;10.064;2023-04-24T00:10:11;11.40;99.90
1702;DHT22;848;48.354;10.064;2023-04-24T00:12:40;11.40;99.90
1702;DHT22;848;48.354;10.064;2023-04-24T00:15:08;11.30;99.90
1702;DHT22;848;48.354;10.064;2023-04-24T00:17:35;11.30;99.90
1702;DHT22;848;48.354;10.064;2023-04-24T00:20:03;11.30;99.90
1702;DHT22;848;48.354;10.064;2023-04-24T00:22:32;11.30;99.90
1702;DHT22;848;48.354;10.064;2023-04-24T00:25:01;11.30;99.90
1702;DHT22;848;48.354;10.064;2023-04-24T00:27:28;11.30;99.90
1702;DHT22;848;48.354;10.064;2023-04-24T00:29:57;11.30;99.90
1702;DHT22;848;48.354;10.064;2023-04-24T00:32:23;11.30;99.90
1702;DHT22;848;48.354;10.064;2023-04-24T00:34:50;11.30;99.90
1702;DHT22;848;48.354;10.064;2023-04-24T00:37:17;11.30;99.90
1702;DHT22;848;48.354;10.064;2023-04-24T00:39:44;11.30;99.90
1702;DHT22;848;48.354;10.064;2023-04-24T00:42:12;11.30;99.90
1702;DHT22;848;48.354;10.064;2023-04-24T00:44:38;11.30;99.90
1702;DHT22;848;48.354;10.064;2023-04-24T00:47:07;11.30;99.90
1702;DHT22;848;48.354;10.064;2023-04-24T00:49:34;11.30;99.90
1702;DHT22;848;48.354;10.064;2023-04-24T00:52:01;11.30;99.90
1702;DHT22;848;48.354;10.064;2023-04-24T00:54:33;11.30;99.90
1702;DHT22;848;48.354;10.064;2023-04-24T00:57:00;11.30;99.90
1702;DHT22;848;48.354;10.064;2023-04-24T00:59:27;11.30;99.90
1702;DHT22;848;48.354;10.064;2023-04-24T01:01:54;11.30;99.90
1702;DHT22;848;48.354;10.064;2023-04-24T01:04:23;11.30;99.90
1702;DHT22;848;48.354;10.064;2023-04-24T01:06:52;11.30;99.90
1702;DHT22;848;48.354;10.064;2023-04-24T01:09:21;11.30;99.90
1702;DHT22;848;48.354;10.064;2023-04-24T01:11:49;11.30;99.90
1702;DHT22;848;48.354;10.064;2023-04-24T01:14:16;11.30;99.90
1702;DHT22;848;48.354;10.064;2023-04-24T01:16:43;11.30;99.90
1702;DHT22;848;48.354;10.064;2023-04-24T01:19:11;11.30;99.90
1702;DHT22;848;48.354;10.064;2023-04-24T01:21:40;11.20;99.90
1702;DHT22;848;48.354;10.064;2023-04-24T01:24:09;11.30;99.90
1702;DHT22;848;48.354;10.064;2023-04-24T01:26:36;11.30;99.90
1702;DHT22;848;48.354;10.064;2023-04-24T01:29:03;11.20;99.90
1702;DHT22;848;48.354;10.064;2023-04-24T01:31:30;11.20;99.90
1702;DHT22;848;48.354;10.064;2023-04-24T01:33:57;11.20;99.90
1702;DHT22;848;48.354;10.064;2023-04-24T01:36:26;11.30;99.90
1702;DHT22;848;48.354;10.064;2023-04-24T01:38:53;11.20;99.90
1702;DHT22;848;48.354;10.064;2023-04-24T01:41:22;11.10;99.90
1702;DHT22;848;48.354;10.064;2023-04-24T01:43:49;11.20;99.90
1702;DHT22;848;48.354;10.064;2023-04-24T01:46:16;11.10;99.90
1702;DHT22;848;48.354;10.064;2023-04-24T01:48:44;11.10;99.90
1702;DHT22;848;48.354;10.064;2023-04-24T01:51:12;11.20;99.90
1702;DHT22;848;48.354;10.064;2023-04-24T01:53:39;11.10;99.90
1702;DHT22;848;48.354;10.064;2023-04-24T01:56:06;11.10;99.90
1702;DHT22;848;48.354;10.064;2023-04-24T01:58:35;11.20;99.90
1702;DHT22;848;48.354;10.064;2023-04-24T02:01:02;11.10;99.90
1702;DHT22;848;48.354;10.064;2023-04-24T02:03:29;11.10;99.90
1702;DHT22;848;48.354;10.064;2023-04-24T02:05:55;11.00;99.90
1702;DHT22;848;48.354;10.064;2023-04-24T02:08:22;11.00;99.90
1702;DHT22;848;48.354;10.064;2023-04-24T02:10:49;11.10;99.90
1702;DHT22;848;48.354;10.064;2023-04-24T02:13:16;11.10;99.90
1702;DHT22;848;48.354;10.064;2023-04-24T02:15:44;11.00;99.90
1702;DHT22;848;48.354;10.064;2023-04-24T02:18:13;11.00;99.90
1702;DHT22;848;48.354;10.064;2023-04-24T02:20:41;11.00;99.90
1702;DHT22;848;48.354;10.064;2023-04-24T02:23:07;11.00;99.90
1702;DHT22;848;48.354;10.064;2023-04-24T02:25:34;10.90;99.90
1702;DHT22;848;48.354;10.064;2023-04-24T02:28:01;10.90;99.90
1702;DHT22;848;48.354;10.064;2023-04-24T02:30:28;10.90;99.90
1702;DHT22;848;48.354;10.064;2023-04-24T02:32:57;10.90;99.90
1702;DHT22;848;48.354;10.064;2023-04-24T02:35:24;11.00;99.90
1702;DHT22;848;48.354;10.064;2023-04-24T02:37:51;10.90;99.90
1702;DHT22;848;48.354;10.064;2023-04-24T02:40:18;10.90;99.90
1702;DHT22;848;48.354;10.064;2023-04-24T02:42:45;10.90;99.90
1702;DHT22;848;48.354;10.064;2023-04-24T02:45:12;10.90;99.90
1702;DHT22;848;48.354;10.064;2023-04-24T02:47:39;10.90;99.90
1702;DHT22;848;48.354;10.064;2023-04-24T02:50:08;10.90;99.90
1702;DHT22;848;48.354;10.064;2023-04-24T02:52:35;10.90;99.90
1702;DHT22;848;48.354;10.064;2023-04-24T02:55:02;10.90;99.90
1702;DHT22;848;48.354;10.064;2023-04-24T02:57:30;10.90;99.90
1702;DHT22;848;48.354;10.064;2023-04-24T02:59:57;10.90;99.90
1702;DHT22;848;48.354;10.064;2023-04-24T03:02:24;10.80;99.90
1702;DHT22;848;48.354;10.064;2023-04-24T03:04:51;10.80;99.90
1702;DHT22;848;48.354;10.064;2023-04-24T03:07:19;10.90;99.90
1702;DHT22;848;48.354;10.064;2023-04-24T03:09:46;10.90;99.90
1702;DHT22;848;48.354;10.064;2023-04-24T03:12:13;10.80;99.90
1702;DHT22;848;48.354;10.064;2023-04-24T03:14:42;10.80;99.90
1702;DHT22;848;48.354;10.064;2023-04-24T03:17:09;10.80;99.90
1702;DHT22;848;48.354;10.064;2023-04-24T03:19:36;10.80;99.90
1702;DHT22;848;48.354;10.064;2023-04-24T03:22:04;10.80;99.90
1702;DHT22;848;48.354;10.064;2023-04-24T03:24:32;10.80;99.90
1702;DHT22;848;48.354;10.064;2023-04-24T03:26:59;10.80;99.90
1702;DHT22;848;48.354;10.064;2023-04-24T03:29:26;10.80;99.90
1702;DHT22;848;48.354;10.064;2023-04-24T03:31:53;10.80;99.90
1702;DHT22;848;48.354;10.064;2023-04-24T03:34:20;10.80;99.90
1702;DHT22;848;48.354;10.064;2023-04-24T03:36:48;10.80;99.90
1702;DHT22;848;48.354;10.064;2023-04-24T03:39:15;10.80;99.90
1702;DHT22;848;48.354;10.064;2023-04-24T03:41:46;10.80;99.90
1702;DHT22;848;48.354;10.064;2023-04-24T03:44:13;10.80;99.90
1702;DHT22;848;48.354;10.064;2023-04-24T03:46:40;10.80;99.90
1702;DHT22;848;48.354;10.064;2023-04-24T03:49:06;10.80;99.90
1702;DHT22;848;48.354;10.064;2023-04-24T03:51:33;10.80;99.90
1702;DHT22;848;48.354;10.064;2023-04-24T03:54:00;10.90;99.90
1702;DHT22;848;48.354;10.064;2023-04-24T03:56:32;10.90;99.90
1702;DHT22;848;48.354;10.064;2023-04-24T03:59:00;10.90;99.90
1702;DHT22;848;48.354;10.064;2023-04-24T04:01:28;10.90;99.90
1702;DHT22;848;48.354;10.064;2023-04-24T04:03:56;10.90;99.90
1702;DHT22;848;48.354;10.064;2023-04-24T04:06:23;10.90;99.90
1702;DHT22;848;48.354;10.064;2023-04-24T04:08:50;10.90;99.90
1702;DHT22;848;48.354;10.064;2023-04-24T04:11:16;10.90;99.90
1702;DHT22;848;48.354;10.064;2023-04-24T04:13:45;10.90;99.90
1702;DHT22;848;48.354;10.064;2023-04-24T04:16:14;10.80;99.90
1702;DHT22;848;48.354;10.064;2023-04-24T04:18:42;10.90;99.90
1702;DHT22;848;48.354;10.064;2023-04-24T04:21:09;10.80;99.90
1702;DHT22;848;48.354;10.064;2023-04-24T04:23:40;10.80;99.90
1702;DHT22;848;48.354;10.064;2023-04-24T04:26:07;10.80;99.90
1702;DHT22;848;48.354;10.064;2023-04-24T04:28:34;10.80;99.90
1702;DHT22;848;48.354;10.064;2023-04-24T04:31:01;10.80;99.90
1702;DHT22;848;48.354;10.064;2023-04-24T04:33:29;10.80;99.90
1702;DHT22;848;48.354;10.064;2023-04-24T04:35:56;10.80;99.90
1702;DHT22;848;48.354;10.064;2023-04-24T04:38:24;10.80;99.90
1702;DHT22;848;48.354;10.064;2023-04-24T04:40:52;10.80;99.90
1702;DHT22;848;48.354;10.064;2023-04-24T04:43:19;10.80;99.90
1702;DHT22;848;48.354;10.064;2023-04-24T04:45:46;10.90;99.90
1702;DHT22;848;48.354;10.064;2023-04-24T04:48:13;10.90;99.90
1702;DHT22;848;48.354;10.064;2023-04-24T04:50:47;10.90;99.90
1702;DHT22;848;48.354;10.064;2023-04-24T04:53:14;11.00;99.90
1702;DHT22;848;48.354;10.064;2023-04-24T04:55:41;11.00;99.90
1702;DHT22;848;48.354;10.064;2023-04-24T04:58:08;11.00;99.90
1702;DHT22;848;48.354;10.064;2023-04-24T05:00:35;10.90;99.90
1702;DHT22;848;48.354;10.064;2023-04-24T05:03:03;10.90;99.90
1702;DHT22;848;48.354;10.064;2023-04-24T05:05:30;10.90;99.90
1702;DHT22;848;48.354;10.064;2023-04-24T05:07:58;10.90;99.90
1702;DHT22;848;48.354;10.064;2023-04-24T05:10:25;11.00;99.90
1702;DHT22;848;48.354;10.064;2023-04-24T05:12:52;11.00;99.90
1702;DHT22;848;48.354;10.064;2023-04-24T05:15:19;11.00;99.90
1702;DHT22;848;48.354;10.064;2023-04-24T05:17:46;11.00;99.90
1702;DHT22;848;48.354;10.064;2023-04-24T05:20:13;10.90;99.90
1702;DHT22;848;48.354;10.064;2023-04-24T05:22:40;11.00;99.90
1702;DHT22;848;48.354;10.064;2023-04-24T05:25:09;11.00;99.90
1702;DHT22;848;48.354;10.064;2023-04-24T05:27:36;11.00;99.90
1702;DHT22;848;48.354;10.064;2023-04-24T05:30:04;11.00;99.90
1702;DHT22;848;48.354;10.064;2023-04-24T05:32:31;11.00;99.90
1702;DHT22;848;48.354;10.064;2023-04-24T05:34:58;11.10;99.90
1702;DHT22;848;48.354;10.064;2023-04-24T05:37:25;11.10;99.90
1702;DHT22;848;48.354;10.064;2023-04-24T05:39:52;11.10;99.90
1702;DHT22;848;48.354;10.064;2023-04-24T05:42:20;11.10;99.90
1702;DHT22;848;48.354;10.064;2023-04-24T05:44:47;11.10;99.90
1702;DHT22;848;48.354;10.064;2023-04-24T05:47:14;11.10;99.90
1702;DHT22;848;48.354;10.064;2023-04-24T05:49:41;11.20;99.90
1702;DHT22;848;48.354;10.064;2023-04-24T05:52:08;11.10;99.90
1702;DHT22;848;48.354;10.064;2023-04-24T05:54:35;11.20;99.90
1702;DHT22;848;48.354;10.064;2023-04-24T05:57:02;11.30;99.90
1702;DHT22;848;48.354;10.064;2023-04-24T05:59:37;11.30;99.90
1702;DHT22;848;48.354;10.064;2023-04-24T06:02:04;11.30;99.90
1702;DHT22;848;48.354;10.064;2023-04-24T06:04:32;11.30;99.90
1702;DHT22;848;48.354;10.064;2023-04-24T06:06:59;11.40;99.90
1702;DHT22;848;48.354;10.064;2023-04-24T06:09:26;11.50;99.90
1702;DHT22;848;48.354;10.064;2023-04-24T06:11:53;11.60;99.90
1702;DHT22;848;48.354;10.064;2023-04-24T06:14:20;11.50;99.90
1702;DHT22;848;48.354;10.064;2023-04-24T06:16:48;11.50;99.90
1702;DHT22;848;48.354;10.064;2023-04-24T06:19:15;11.50;99.90
1702;DHT22;848;48.354;10.064;2023-04-24T06:21:42;11.40;99.90
1702;DHT22;848;48.354;10.064;2023-04-24T06:24:09;11.30;99.90
1702;DHT22;848;48.354;10.064;2023-04-24T06:26:36;11.30;99.90
1702;DHT22;848;48.354;10.064;2023-04-24T06:29:03;11.20;99.90
1702;DHT22;848;48.354;10.064;2023-04-24T06:31:30;11.00;99.90
1702;DHT22;848;48.354;10.064;2023-04-24T06:34:03;10.80;99.90
1702;DHT22;848;48.354;10.064;2023-04-24T06:36:31;10.80;99.90
1702;DHT22;848;48.354;10.064;2023-04-24T06:39:00;10.70;99.90
1702;DHT22;848;48.354;10.064;2023-04-24T06:41:27;10.60;99.90
1702;DHT22;848;48.354;10.064;2023-04-24T06:43:54;10.70;99.90
1702;DHT22;848;48.354;10.064;2023-04-24T06:46:22;10.60;99.90
1702;DHT22;848;48.354;10.064;2023-04-24T06:48:51;10.60;99.90
1702;DHT22;848;48.354;10.064;2023-04-24T06:51:22;10.50;99.90
1702;DHT22;848;48.354;10.064;2023-04-24T06:53:49;10.50;99.90
1702;DHT22;848;48.354;10.064;2023-04-24T06:56:16;10.50;99.90
1702;DHT22;848;48.354;10.064;2023-04-24T06:58:43;10.50;99.90
1702;DHT22;848;48.354;10.064;2023-04-24T07:01:10;10.60;99.90
1702;DHT22;848;48.354;10.064;2023-04-24T07:03:37;10.60;99.90
1702;DHT22;848;48.354;10.064;2023-04-24T07:06:05;10.60;99.90
1702;DHT22;848;48.354;10.064;2023-04-24T07:08:33;10.70;99.90
1702;DHT22;848;48.354;10.064;2023-04-24T07:11:01;10.80;99.90
1702;DHT22;848;48.354;10.064;2023-04-24T07:13:28;11.00;99.90
1702;DHT22;848;48.354;10.064;2023-04-24T07:15:55;10.90;99.90
1702;DHT22;848;48.354;10.064;2023-04-24T07:18:22;10.90;99.90
1702;DHT22;848;48.354;10.064;2023-04-24T07:20:49;11.00;99.90
1702;DHT22;848;48.354;10.064;2023-04-24T07:23:17;11.10;99.90
1702;DHT22;848;48.354;10.064;2023-04-24T07:25:45;11.20;99.90
1702;DHT22;848;48.354;10.064;2023-04-24T07:28:12;11.30;99.90
1702;DHT22;848;48.354;10.064;2023-04-24T07:30:39;11.50;99.90
1702;DHT22;848;48.354;10.064;2023-04-24T07:33:06;11.60;99.90
1702;DHT22;848;48.354;10.064;2023-04-24T07:35:33;12.00;99.90
1702;DHT22;848;48.354;10.064;2023-04-24T07:38:00;12.30;99.90
1702;DHT22;848;48.354;10.064;2023-04-24T07:40:27;12.60;99.90
1702;DHT22;848;48.354;10.064;2023-04-24T07:42:56;12.80;99.90
1702;DHT22;848;48.354;10.064;2023-04-24T07:45:22;12.90;99.90
1702;DHT22;848;48.354;10.064;2023-04-24T07:47:51;12.80;99.90
1702;DHT22;848;48.354;10.064;2023-04-24T07:50:18;12.90;99.90
1702;DHT22;848;48.354;10.064;2023-04-24T07:52:45;13.10;99.90
1702;DHT22;848;48.354;10.064;2023-04-24T07:55:13;13.30;99.90
1702;DHT22;848;48.354;10.064;2023-04-24T07:57:40;13.70;99.90
1702;DHT22;848;48.354;10.064;2023-04-24T08:00:09;14.10;99.90
1702;DHT22;848;48.354;10.064;2023-04-24T08:02:36;14.40;99.90
1702;DHT22;848;48.354;10.064;2023-04-24T08:05:05;14.70;99.90
1702;DHT22;848;48.354;10.064;2023-04-24T08:07:32;14.70;99.90
1702;DHT22;848;48.354;10.064;2023-04-24T08:10:00;14.60;99.90
1702;DHT22;848;48.354;10.064;2023-04-24T08:12:28;14.70;99.90
1702;DHT22;848;48.354;10.064;2023-04-24T08:14:55;14.70;99.90
1702;DHT22;848;48.354;10.064;2023-04-24T08:17:23;15.00;99.90
1702;DHT22;848;48.354;10.064;2023-04-24T08:19:50;15.50;99.90
1702;DHT22;848;48.354;10.064;2023-04-24T08:22:19;15.60;99.90
1702;DHT22;848;48.354;10.064;2023-04-24T08:24:46;15.60;99.90
1702;DHT22;848;48.354;10.064;2023-04-24T08:27:13;16.00;99.90
1702;DHT22;848;48.354;10.064;2023-04-24T08:29:40;16.40;99.90
1702;DHT22;848;48.354;10.064;2023-04-24T08:32:06;16.80;99.90
1702;DHT22;848;48.354;10.064;2023-04-24T08:34:35;16.80;99.90
1702;DHT22;848;48.354;10.064;2023-04-24T08:37:02;16.60;99.90
1702;DHT22;848;48.354;10.064;2023-04-24T08:39:29;16.40;99.90
1702;DHT22;848;48.354;10.064;2023-04-24T08:41:56;16.30;99.90
1702;DHT22;848;48.354;10.064;2023-04-24T08:44:31;16.40;99.90
1702;DHT22;848;48.354;10.064;2023-04-24T08:46:59;16.30;99.90
1702;DHT22;848;48.354;10.064;2023-04-24T08:49:28;16.30;99.90
1702;DHT22;848;48.354;10.064;2023-04-24T08:51:57;16.10;99.90
1702;DHT22;848;48.354;10.064;2023-04-24T08:54:25;16.10;99.90
1702;DHT22;848;48.354;10.064;2023-04-24T08:56:54;16.40;99.90
1702;DHT22;848;48.354;10.064;2023-04-24T08:59:26;16.60;99.90
1702;DHT22;848;48.354;10.064;2023-04-24T09:01:55;16.10;99.90
1702;DHT22;848;48.354;10.064;2023-04-24T09:04:23;15.10;99.90
1702;DHT22;848;48.354;10.064;2023-04-24T09:06:50;13.30;99.90
1702;DHT22;848;48.354;10.064;2023-04-24T09:09:19;12.20;99.90
1702;DHT22;848;48.354;10.064;2023-04-24T09:11:46;11.90;99.90
1702;DHT22;848;48.354;10.064;2023-04-24T09:14:16;11.80;99.90
1702;DHT22;848;48.354;10.064;2023-04-24T09:16:43;11.90;99.90
1702;DHT22;848;48.354;10.064;2023-04-24T09:19:10;11.60;99.90
1702;DHT22;848;48.354;10.064;2023-04-24T09:21:37;11.50;99.90
1702;DHT22;848;48.354;10.064;2023-04-24T09:24:05;11.40;99.90
1702;DHT22;848;48.354;10.064;2023-04-24T09:26:35;11.40;99.90
1702;DHT22;848;48.354;10.064;2023-04-24T09:29:03;11.50;99.90
1702;DHT22;848;48.354;10.064;2023-04-24T09:31:30;11.70;99.90
1702;DHT22;848;48.354;10.064;2023-04-24T09:33:59;11.80;99.90
1702;DHT22;848;48.354;10.064;2023-04-24T09:36:30;11.90;99.90
1702;DHT22;848;48.354;10.064;2023-04-24T09:38:59;12.40;99.90
1702;DHT22;848;48.354;10.064;2023-04-24T09:41:27;12.70;99.90
1702;DHT22;848;48.354;10.064;2023-04-24T09:43:56;12.90;99.90
1702;DHT22;848;48.354;10.064;2023-04-24T09:46:33;13.00;99.90
1702;DHT22;848;48.354;10.064;2023-04-24T09:49:08;12.90;99.90
1702;DHT22;848;48.354;10.064;2023-04-24T09:51:37;12.90;99.90
1702;DHT22;848;48.354;10.064;2023-04-24T09:54:11;13.00;99.90
1702;DHT22;848;48.354;10.064;2023-04-24T09:56:42;13.10;99.90
1702;DHT22;848;48.354;10.064;2023-04-24T09:59:12;13.30;99.90
1702;DHT22;848;48.354;10.064;2023-04-24T10:01:39;13.50;99.90
1702;DHT22;848;48.354;10.064;2023-04-24T10:04:16;13.60;99.90
1702;DHT22;848;48.354;10.064;2023-04-24T10:06:44;13.20;99.90
1702;DHT22;848;48.354;10.064;2023-04-24T10:09:11;13.00;99.90
1702;DHT22;848;48.354;10.064;2023-04-24T10:11:43;12.90;99.90
1702;DHT22;848;48.354;10.064;2023-04-24T10:14:12;13.10;99.90
1702;DHT22;848;48.354;10.064;2023-04-24T10:16:40;13.00;99.90
1702;DHT22;848;48.354;10.064;2023-04-24T10:19:07;13.20;99.90
1702;DHT22;848;48.354;10.064;2023-04-24T10:21:34;13.40;99.90
1702;DHT22;848;48.354;10.064;2023-04-24T10:24:03;13.60;99.90
1702;DHT22;848;48.354;10.064;2023-04-24T10:29:15;13.50;99.90
1702;DHT22;848;48.354;10.064;2023-04-24T10:31:42;13.30;99.90
1702;DHT22;848;48.354;10.064;2023-04-24T10:34:11;13.20;99.90
1702;DHT22;848;48.354;10.064;2023-04-24T10:36:40;13.00;99.90
1702;DHT22;848;48.354;10.064;2023-04-24T10:39:11;12.90;99.90
1702;DHT22;848;48.354;10.064;2023-04-24T10:41:40;13.00;99.90
1702;DHT22;848;48.354;10.064;2023-04-24T10:44:07;13.10;99.90
1702;DHT22;848;48.354;10.064;2023-04-24T10:46:37;13.10;99.90
1702;DHT22;848;48.354;10.064;2023-04-24T10:49:07;13.10;99.90
1702;DHT22;848;48.354;10.064;2023-04-24T10:51:45;12.90;99.90
1702;DHT22;848;48.354;10.064;2023-04-24T10:54:26;13.00;99.90
1702;DHT22;848;48.354;10.064;2023-04-24T10:56:56;13.20;99.90
1702;DHT22;848;48.354;10.064;2023-04-24T10:59:40;13.20;99.90
1702;DHT22;848;48.354;10.064;2023-04-24T11:02:09;13.30;99.90
1702;DHT22;848;48.354;10.064;2023-04-24T11:04:36;13.40;99.90
1702;DHT22;848;48.354;10.064;2023-04-24T11:07:03;13.10;99.90
1702;DHT22;848;48.354;10.064;2023-04-24T11:09:31;12.80;99.90
1702;DHT22;848;48.354;10.064;2023-04-24T11:12:08;12.60;99.90
1702;DHT22;848;48.354;10.064;2023-04-24T11:14:59;12.50;99.90
1702;DHT22;848;48.354;10.064;2023-04-24T11:17:32;12.40;99.90
1702;DHT22;848;48.354;10.064;2023-04-24T11:20:02;12.40;99.90
1702;DHT22;848;48.354;10.064;2023-04-24T11:22:33;12.50;99.90
1702;DHT22;848;48.354;10.064;2023-04-24T11:25:01;12.60;99.90
1702;DHT22;848;48.354;10.064;2023-04-24T11:27:31;12.70;99.90
1702;DHT22;848;48.354;10.064;2023-04-24T11:30:00;12.80;99.90
1702;DHT22;848;48.354;10.064;2023-04-24T11:32:29;12.80;99.90
1702;DHT22;848;48.354;10.064;2023-04-24T11:34:58;12.80;99.90
1702;DHT22;848;48.354;10.064;2023-04-24T11:37:28;13.00;99.90
1702;DHT22;848;48.354;10.064;2023-04-24T11:39:56;13.20;99.90
1702;DHT22;848;48.354;10.064;2023-04-24T11:42:24;13.20;99.90
1702;DHT22;848;48.354;10.064;2023-04-24T11:44:52;13.10;99.90
1702;DHT22;848;48.354;10.064;2023-04-24T11:47:19;13.00;99.90
1702;DHT22;848;48.354;10.064;2023-04-24T11:49:50;12.70;99.90
1702;DHT22;848;48.354;10.064;2023-04-24T11:52:19;12.40;99.90
1702;DHT22;848;48.354;10.064;2023-04-24T11:54:49;12.20;99.90
1702;DHT22;848;48.354;10.064;2023-04-24T11:57:19;12.00;99.90
1702;DHT22;848;48.354;10.064;2023-04-24T11:59:46;12.10;99.90
1702;DHT22;848;48.354;10.064;2023-04-24T12:02:20;12.30;99.90
1702;DHT22;848;48.354;10.064;2023-04-24T12:04:48;12.50;99.90
1702;DHT22;848;48.354;10.064;2023-04-24T12:07:15;12.60;99.90
1702;DHT22;848;48.354;10.064;2023-04-24T12:09:45;12.80;99.90
1702;DHT22;848;48.354;10.064;2023-04-24T12:12:13;12.80;99.90
1702;DHT22;848;48.354;10.064;2023-04-24T12:14:44;12.90;99.90
1702;DHT22;848;48.354;10.064;2023-04-24T12:17:11;12.80;99.90
1702;DHT22;848;48.354;10.064;2023-04-24T12:19:44;12.60;99.90
1702;DHT22;848;48.354;10.064;2023-04-24T12:22:11;12.50;99.90
1702;DHT22;848;48.354;10.064;2023-04-24T12:24:59;12.60;99.90
1702;DHT22;848;48.354;10.064;2023-04-24T12:27:26;13.30;99.90
1702;DHT22;848;48.354;10.064;2023-04-24T12:29:56;12.90;99.90
1702;DHT22;848;48.354;10.064;2023-04-24T12:32:24;12.90;99.90
1702;DHT22;848;48.354;10.064;2023-04-24T12:34:52;13.00;99.90
1702;DHT22;848;48.354;10.064;2023-04-24T12:37:19;13.20;99.90
1702;DHT22;848;48.354;10.064;2023-04-24T12:40:05;13.10;99.90
1702;DHT22;848;48.354;10.064;2023-04-24T12:42:32;12.90;99.90
1702;DHT22;848;48.354;10.064;2023-04-24T12:45:01;12.70;99.90
1702;DHT22;848;48.354;10.064;2023-04-24T12:47:28;12.80;99.90
1702;DHT22;848;48.354;10.064;2023-04-24T12:49:55;13.00;99.90
1702;DHT22;848;48.354;10.064;2023-04-24T12:52:22;13.20;99.90
1702;DHT22;848;48.354;10.064;2023-04-24T12:54:52;13.10;99.90
1702;DHT22;848;48.354;10.064;2023-04-24T12:57:21;13.00;99.90
1702;DHT22;848;48.354;10.064;2023-04-24T12:59:48;12.90;99.90
1702;DHT22;848;48.354;10.064;2023-04-24T13:02:16;12.80;99.90
1702;DHT22;848;48.354;10.064;2023-04-24T13:04:44;12.80;99.90
1702;DHT22;848;48.354;10.064;2023-04-24T13:07:12;12.70;99.90
1702;DHT22;848;48.354;10.064;2023-04-24T13:09:39;12.90;99.90
1702;DHT22;848;48.354;10.064;2023-04-24T13:12:06;13.00;99.90
1702;DHT22;848;48.354;10.064;2023-04-24T13:14:35;13.10;99.90
1702;DHT22;848;48.354;10.064;2023-04-24T13:17:02;13.20;99.90
1702;DHT22;848;48.354;10.064;2023-04-24T13:19:29;12.90;99.90
1702;DHT22;848;48.354;10.064;2023-04-24T13:21:57;12.80;99.90
1702;DHT22;848;48.354;10.064;2023-04-24T13:24:24;12.70;99.90
1702;DHT22;848;48.354;10.064;2023-04-24T13:26:51;12.50;99.90
1702;DHT22;848;48.354;10.064;2023-04-24T13:29:18;12.40;99.90
1702;DHT22;848;48.354;10.064;2023-04-24T13:31:49;12.50;99.90
1702;DHT22;848;48.354;10.064;2023-04-24T13:34:16;12.50;99.90
1702;DHT22;848;48.354;10.064;2023-04-24T13:36:43;12.60;99.90
1702;DHT22;848;48.354;10.064;2023-04-24T13:39:10;12.70;99.90
1702;DHT22;848;48.354;10.064;2023-04-24T13:41:37;12.70;99.90
1702;DHT22;848;48.354;10.064;2023-04-24T13:44:05;12.70;99.90
1702;DHT22;848;48.354;10.064;2023-04-24T13:46:34;12.60;99.90
1702;DHT22;848;48.354;10.064;2023-04-24T13:49:02;12.50;99.90
1702;DHT22;848;48.354;10.064;2023-04-24T13:51:30;12.50;99.90
1702;DHT22;848;48.354;10.064;2023-04-24T13:53:57;12.60;99.90
1702;DHT22;848;48.354;10.064;2023-04-24T13:56:25;12.80;99.90
1702;DHT22;848;48.354;10.064;2023-04-24T13:58:52;12.80;99.90
1702;DHT22;848;48.354;10.064;2023-04-24T14:01:20;12.70;99.90
1702;DHT22;848;48.354;10.064;2023-04-24T14:03:49;12.80;99.90
1702;DHT22;848;48.354;10.064;2023-04-24T14:06:18;12.60;99.90
1702;DHT22;848;48.354;10.064;2023-04-24T14:08:45;12.60;99.90
1702;DHT22;848;48.354;10.064;2023-04-24T14:11:12;12.50;99.90
1702;DHT22;848;48.354;10.064;2023-04-24T14:13:41;12.60;99.90
1702;DHT22;848;48.354;10.064;2023-04-24T14:16:09;12.50;99.90
1702;DHT22;848;48.354;10.064;2023-04-24T14:18:36;12.50;99.90
1702;DHT22;848;48.354;10.064;2023-04-24T14:21:03;12.60;99.90
1702;DHT22;848;48.354;10.064;2023-04-24T14:23:32;12.80;99.90
1702;DHT22;848;48.354;10.064;2023-04-24T14:25:59;12.90;99.90
1702;DHT22;848;48.354;10.064;2023-04-24T14:28:26;13.00;99.90
1702;DHT22;848;48.354;10.064;2023-04-24T14:30:53;12.70;99.90
1702;DHT22;848;48.354;10.064;2023-04-24T14:33:20;12.50;99.90
1702;DHT22;848;48.354;10.064;2023-04-24T14:35:47;12.50;99.90
1702;DHT22;848;48.354;10.064;2023-04-24T14:38:14;12.40;99.90
1702;DHT22;848;48.354;10.064;2023-04-24T14:40:43;12.30;99.90
1702;DHT22;848;48.354;10.064;2023-04-24T14:43:10;12.30;99.90
1702;DHT22;848;48.354;10.064;2023-04-24T14:45:39;12.30;99.90
1702;DHT22;848;48.354;10.064;2023-04-24T14:48:07;12.30;99.90
1702;DHT22;848;48.354;10.064;2023-04-24T14:50:34;12.40;99.90
1702;DHT22;848;48.354;10.064;2023-04-24T14:53:01;12.50;99.90
1702;DHT22;848;48.354;10.064;2023-04-24T14:55:28;12.60;99.90
1702;DHT22;848;48.354;10.064;2023-04-24T14:57:56;12.70;99.90
1702;DHT22;848;48.354;10.064;2023-04-24T15:00:23;12.70;99.90
1702;DHT22;848;48.354;10.064;2023-04-24T15:02:50;12.70;99.90
1702;DHT22;848;48.354;10.064;2023-04-24T15:05:17;12.70;99.90
1702;DHT22;848;48.354;10.064;2023-04-24T15:07:45;12.80;99.90
1702;DHT22;848;48.354;10.064;2023-04-24T15:10:12;13.10;99.90
1702;DHT22;848;48.354;10.064;2023-04-24T15:12:38;13.30;99.90
1702;DHT22;848;48.354;10.064;2023-04-24T15:15:08;13.30;99.90
1702;DHT22;848;48.354;10.064;2023-04-24T15:17:35;13.10;99.90
1702;DHT22;848;48.354;10.064;2023-04-24T15:20:03;13.10;99.90
1702;DHT22;848;48.354;10.064;2023-04-24T15:22:31;13.00;99.90
1702;DHT22;848;48.354;10.064;2023-04-24T15:24:58;12.90;99.90
1702;DHT22;848;48.354;10.064;2023-04-24T15:27:26;12.80;99.90
1702;DHT22;848;48.354;10.064;2023-04-24T15:29:53;12.70;99.90
1702;DHT22;848;48.354;10.064;2023-04-24T15:32:21;12.70;99.90
1702;DHT22;848;48.354;10.064;2023-04-24T15:34:48;12.70;99.90
1702;DHT22;848;48.354;10.064;2023-04-24T15:37:15;12.80;99.90
1702;DHT22;848;48.354;10.064;2023-04-24T15:39:44;12.80;99.90
1702;DHT22;848;48.354;10.064;2023-04-24T15:42:13;12.80;99.90
1702;DHT22;848;48.354;10.064;2023-04-24T15:44:40;12.80;99.90
1702;DHT22;848;48.354;10.064;2023-04-24T15:47:07;12.80;99.90
1702;DHT22;848;48.354;10.064;2023-04-24T15:49:35;12.80;99.90
1702;DHT22;848;48.354;10.064;2023-04-24T15:52:02;12.90;99.90
1702;DHT22;848;48.354;10.064;2023-04-24T15:54:29;12.90;99.90
1702;DHT22;848;48.354;10.064;2023-04-24T15:56:56;12.80;99.90
1702;DHT22;848;48.354;10.064;2023-04-24T15:59:23;12.70;99.90
1702;DHT22;848;48.354;10.064;2023-04-24T16:01:50;12.60;99.90
1702;DHT22;848;48.354;10.064;2023-04-24T16:04:17;12.50;99.90
1702;DHT22;848;48.354;10.064;2023-04-24T16:06:47;12.40;99.90
1702;DHT22;848;48.354;10.064;2023-04-24T16:09:14;12.50;99.90